Oxford, Florida
Current Conditions -  °F | °C
As of 2:53 AM on Friday 28 Nov 2014 (Local Time) from KLEE Reporting Station
Clear Clear  
Wind Chill: 38°   Ceiling: Unl
Heat Index: 44°   Visibility: 10mi
Dew Point: 34°   Wind: 12mph
Humidity: 68%   Direction: 360°N
Pressure: 30.32"   Gusts: NA
Location:  28.93°N, 82.04°W
Report Text: KLEE 280753Z AUTO 36010KT 10SM CLR 07/01 A3032 RMK AO2 SLP264 T00670011
Loading
Personal Weather Stations






























Interactive Weather Map New forecast layout! Learn more

10-Day Weather Forecast

Advertisements
Track Severe Weather on mobile